Time;durP1;ratioP1;P1;durP2;ratioP2;P2;SDS_P1;SDS_P2;PMS_P1;PMS_P2;Temp;Humidity;BMP_temperature;BMP_pressure;BME280_temperature;BME280_humidity;BME280_pressure;Samples;Min_cycle;Max_cycle;Signal;HPM_P1;HPM_P2
2023/05/31 00:01:29;;;;;;;6.00;2.50;;;12.90;99.90;;;;;;5096992;28;20196;-78
2023/05/31 00:03:54;;;;;;;6.37;2.57;;;12.80;1.00;;;;;;5097530;28;20172;-78
2023/05/31 00:06:20;;;;;;;4.67;2.03;;;12.80;65.60;;;;;;5080207;28;20180;-77
2023/05/31 00:08:46;;;;;;;3.60;2.20;;;12.80;99.90;;;;;;5079396;28;20172;-79
2023/05/31 00:11:12;;;;;;;4.63;2.40;;;12.80;99.90;;;;;;5078096;28;20249;-78
2023/05/31 00:13:40;;;;;;;4.87;2.10;;;12.80;1.00;;;;;;5097314;28;20222;-80
2023/05/31 00:16:07;;;;;;;5.70;2.50;;;12.80;1.00;;;;;;5097308;28;20168;-78
2023/05/31 00:18:32;;;;;;;4.67;2.07;;;12.70;45.80;;;;;;5096707;28;20169;-78
2023/05/31 00:20:58;;;;;;;3.57;2.00;;;12.90;1.00;;;;;;5078571;28;20175;-79
2023/05/31 00:23:24;;;;;;;5.00;2.30;;;12.90;1.00;;;;;;5076670;28;20180;-80
2023/05/31 00:25:49;;;;;;;3.80;2.00;;;12.90;1.00;;;;;;5075837;28;20268;-78
2023/05/31 00:28:15;;;;;;;5.07;2.20;;;12.80;1.00;;;;;;5075776;28;20239;-78
2023/05/31 00:30:40;;;;;;;3.23;2.00;;;12.70;1.00;;;;;;5057384;28;20200;-79
2023/05/31 00:33:06;;;;;;;4.63;2.33;;;12.50;1.00;;;;;;5075169;28;20212;-78
2023/05/31 00:35:32;;;;;;;6.20;2.13;;;12.50;99.90;;;;;;5057320;28;20216;-78
2023/05/31 00:37:57;;;;;;;4.00;2.10;;;12.50;99.90;;;;;;5057064;28;20175;-78
2023/05/31 00:40:23;;;;;;;5.27;2.40;;;12.50;1.00;;;;;;5056648;28;20169;-78
2023/05/31 00:42:48;;;;;;;3.63;1.90;;;12.30;99.90;;;;;;5058175;28;20252;-79
2023/05/31 00:45:14;;;;;;;5.43;2.17;;;12.20;99.90;;;;;;5056952;28;20177;-78
2023/05/31 00:47:41;;;;;;;3.83;2.20;;;12.10;16.10;;;;;;5056553;28;20177;-78
2023/05/31 00:50:07;;;;;;;3.43;2.20;;;12.10;1.00;;;;;;5055663;28;20188;-78
2023/05/31 00:52:33;;;;;;;4.67;2.10;;;12.10;99.90;;;;;;5055478;28;20201;-78
2023/05/31 00:55:00;;;;;;;6.73;2.60;;;12.00;1.00;;;;;;5055325;28;20222;-79
2023/05/31 00:57:25;;;;;;;3.60;2.00;;;12.10;1.00;;;;;;5055396;28;20279;-78
2023/05/31 00:59:51;;;;;;;3.20;1.93;;;12.10;1.00;;;;;;5054662;28;20201;-80
2023/05/31 01:02:18;;;;;;;3.73;1.97;;;12.00;1.00;;;;;;5072405;28;20284;-78
2023/05/31 01:04:44;;;;;;;3.77;2.00;;;12.10;1.00;;;;;;5054590;28;20703;-78
2023/05/31 01:07:10;;;;;;;4.83;2.00;;;11.90;1.00;;;;;;5054340;28;20243;-78
2023/05/31 01:09:37;;;;;;;6.27;2.10;;;11.90;1.00;;;;;;5074626;28;20264;-75
2023/05/31 01:12:24;;;;;;;3.87;2.10;;;11.90;1.00;;;;;;5075849;28;20283;-78
2023/05/31 01:15:05;;;;;;;3.90;2.07;;;11.90;1.00;;;;;;5058600;28;20260;-78
2023/05/31 01:18:01;;;;;;;5.67;2.33;;;11.70;99.90;;;;;;5058579;28;20240;-78
2023/05/31 01:20:32;;;;;;;3.43;2.03;;;11.60;99.90;;;;;;5057621;28;20208;-78
2023/05/31 01:23:36;;;;;;;3.50;2.07;;;11.70;1.00;;;;;;5056492;28;20216;-80
2023/05/31 01:26:18;;;;;;;3.47;2.27;;;11.60;99.90;;;;;;5062633;28;20189;-80
2023/05/31 01:28:49;;;;;;;3.73;2.40;;;11.70;1.00;;;;;;5075160;28;20260;-78
2023/05/31 01:31:19;;;;;;;4.50;2.03;;;11.80;99.90;;;;;;5071971;28;20611;-78
2023/05/31 01:33:45;;;;;;;5.63;2.10;;;11.70;1.00;;;;;;5051524;28;20200;-78
2023/05/31 01:36:11;;;;;;;3.50;2.07;;;11.60;1.00;;;;;;5060407;28;20173;-78
2023/05/31 01:38:37;;;;;;;4.57;2.00;;;11.60;1.00;;;;;;5056938;28;20176;-81
2023/05/31 01:41:16;;;;;;;3.57;2.03;;;11.60;1.00;;;;;;5055701;28;20180;-77
2023/05/31 01:43:44;;;;;;;5.30;2.50;;;11.40;99.90;;;;;;5073165;28;20262;-78
2023/05/31 01:46:12;;;;;;;5.63;2.30;;;11.40;1.00;;;;;;5064213;28;20177;-78
2023/05/31 01:48:39;;;;;;;4.73;2.20;;;11.40;99.90;;;;;;5073275;28;20223;-80
2023/05/31 01:51:08;;;;;;;3.30;1.90;;;11.40;99.90;;;;;;5060064;28;20564;-78
2023/05/31 01:53:34;;;;;;;4.63;2.10;;;11.40;1.00;;;;;;5062939;28;20210;-78
2023/05/31 01:56:01;;;;;;;3.60;2.10;;;11.30;1.00;;;;;;5054542;28;20177;-79
2023/05/31 01:58:28;;;;;;;4.03;2.00;;;11.30;1.00;;;;;;5055310;28;20177;-80
2023/05/31 02:00:54;;;;;;;4.40;2.40;;;11.20;99.90;;;;;;5064403;28;20173;-79
2023/05/31 02:03:19;;;;;;;4.87;2.17;;;11.00;99.90;;;;;;5066353;28;20177;-79
2023/05/31 02:06:01;;;;;;;4.70;2.10;;;10.90;99.90;;;;;;5082844;28;20177;-80
2023/05/31 02:08:27;;;;;;;4.83;2.50;;;10.90;1.00;;;;;;5065592;28;20180;-80
2023/05/31 02:10:56;;;;;;;6.33;2.30;;;11.00;99.90;;;;;;5064883;28;20177;-81
2023/05/31 02:13:25;;;;;;;5.00;2.00;;;11.00;61.20;;;;;;5067193;28;20209;-79
2023/05/31 02:15:51;;;;;;;3.53;2.03;;;11.00;1.00;;;;;;5074215;28;20210;-81
2023/05/31 02:18:17;;;;;;;5.47;2.23;;;10.90;1.00;;;;;;5066222;28;20176;-81
2023/05/31 02:20:43;;;;;;;4.67;2.13;;;10.90;1.00;;;;;;5065954;28;20176;-80
2023/05/31 02:23:09;;;;;;;4.53;2.10;;;11.00;99.90;;;;;;5065625;28;20193;-80
2023/05/31 02:25:35;;;;;;;5.97;2.23;;;11.00;1.00;;;;;;5068745;28;20191;-82
2023/05/31 02:28:00;;;;;;;3.87;2.30;;;11.10;58.60;;;;;;5069705;28;20181;-79
2023/05/31 02:30:27;;;;;;;4.03;2.33;;;11.00;99.90;;;;;;5064909;28;20177;-80
2023/05/31 02:32:53;;;;;;;6.00;2.50;;;11.00;1.00;;;;;;5065063;28;20205;-80
2023/05/31 02:35:19;;;;;;;3.00;2.10;;;10.90;99.90;;;;;;5068682;28;20177;-79
2023/05/31 02:37:46;;;;;;;5.47;2.10;;;10.80;99.90;;;;;;5068813;28;20177;-80
2023/05/31 02:40:13;;;;;;;5.13;2.40;;;10.80;99.90;;;;;;5068645;28;20178;-80
2023/05/31 02:42:41;;;;;;;4.43;2.50;;;10.80;1.00;;;;;;5069003;28;20239;-80
2023/05/31 02:45:08;;;;;;;3.67;2.03;;;10.90;99.90;;;;;;5068484;28;20184;-79
2023/05/31 02:47:36;;;;;;;4.77;2.27;;;10.80;1.00;;;;;;5068238;28;20173;-79
2023/05/31 02:50:02;;;;;;;4.80;2.00;;;10.60;17.10;;;;;;5068200;28;20197;-80
2023/05/31 02:52:28;;;;;;;4.20;2.00;;;10.60;99.90;;;;;;5069107;28;20268;-81
2023/05/31 02:54:54;;;;;;;3.43;2.20;;;10.60;99.90;;;;;;5086727;28;20287;-79
2023/05/31 02:57:19;;;;;;;4.27;1.93;;;10.50;1.00;;;;;;5087332;28;20182;-79
2023/05/31 02:59:46;;;;;;;4.90;2.40;;;10.60;1.00;;;;;;5067885;28;20476;-79
2023/05/31 03:02:11;;;;;;;3.93;2.17;;;10.70;99.90;;;;;;5067144;28;20198;-79
2023/05/31 03:04:37;;;;;;;3.97;2.10;;;10.80;99.90;;;;;;5068654;28;20182;-80
2023/05/31 03:07:03;;;;;;;6.37;2.07;;;10.90;1.00;;;;;;5067763;28;20173;-81
2023/05/31 03:09:29;;;;;;;3.37;2.00;;;10.90;99.90;;;;;;5085180;28;20188;-81
2023/05/31 03:11:55;;;;;;;4.10;2.03;;;10.90;99.90;;;;;;5067533;28;20213;-80
2023/05/31 03:14:20;;;;;;;3.50;2.13;;;10.90;32.50;;;;;;5067103;28;20212;-82
2023/05/31 03:16:46;;;;;;;4.50;2.00;;;11.00;1.00;;;;;;5067506;28;20286;-82
2023/05/31 03:19:14;;;;;;;4.33;2.03;;;11.00;1.00;;;;;;5086538;28;20184;-82
2023/05/31 03:21:40;;;;;;;3.37;2.00;;;11.00;1.00;;;;;;5073973;28;20242;-81
2023/05/31 03:24:06;;;;;;;4.10;1.90;;;11.00;99.90;;;;;;5067364;28;20180;-82
2023/05/31 03:26:31;;;;;;;3.80;2.00;;;11.00;1.00;;;;;;5065949;28;20177;-83
2023/05/31 03:28:57;;;;;;;4.23;2.07;;;11.10;35.30;;;;;;5065922;28;20177;-82
2023/05/31 03:31:23;;;;;;;4.67;2.17;;;11.00;99.90;;;;;;5083533;28;20625;-82
2023/05/31 03:33:51;;;;;;;5.23;2.20;;;11.00;1.00;;;;;;5066097;28;20212;-82
2023/05/31 03:36:16;;;;;;;4.23;2.00;;;10.90;99.90;;;;;;5064898;28;20173;-82
2023/05/31 03:38:42;;;;;;;5.03;2.40;;;11.00;1.00;;;;;;5068059;28;20173;-81
2023/05/31 03:41:08;;;;;;;4.97;2.33;;;11.00;99.90;;;;;;5085742;28;20183;-84
2023/05/31 03:43:33;;;;;;;5.63;2.13;;;11.00;99.90;;;;;;5085719;28;20168;-82
2023/05/31 03:46:00;;;;;;;3.97;2.37;;;11.10;1.00;;;;;;5067376;28;20177;-82
2023/05/31 03:48:27;;;;;;;5.17;2.33;;;11.20;1.00;;;;;;5067734;28;20184;-84
2023/05/31 03:50:52;;;;;;;5.70;2.70;;;11.20;1.00;;;;;;5085790;28;20282;-82
2023/05/31 03:53:18;;;;;;;3.50;2.10;;;11.40;1.00;;;;;;5068290;28;20212;-82
2023/05/31 03:55:43;;;;;;;5.33;2.10;;;11.50;1.00;;;;;;5069237;28;20169;-81
2023/05/31 03:58:10;;;;;;;3.13;2.17;;;11.50;99.90;;;;;;5068653;28;20172;-82
2023/05/31 04:00:36;;;;;;;5.80;2.50;;;11.40;1.00;;;;;;5086541;28;20166;-83
2023/05/31 04:03:02;;;;;;;3.53;2.40;;;11.20;1.00;;;;;;5087221;28;20192;-83
2023/05/31 04:05:27;;;;;;;6.17;2.47;;;11.00;1.00;;;;;;5086672;28;20184;-83
2023/05/31 04:07:53;;;;;;;3.87;2.50;;;10.80;99.90;;;;;;5068907;28;20176;-85
2023/05/31 04:10:18;;;;;;;3.73;2.60;;;10.70;1.00;;;;;;5068267;28;20313;-82
2023/05/31 04:12:44;;;;;;;6.27;2.60;;;10.50;1.00;;;;;;5068986;28;20197;-82
2023/05/31 04:15:10;;;;;;;3.53;2.47;;;10.60;1.00;;;;;;5069175;28;20171;-82
2023/05/31 04:17:36;;;;;;;5.10;2.50;;;10.70;1.00;;;;;;5068751;28;20172;-82
2023/05/31 04:20:04;;;;;;;4.77;2.40;;;10.70;1.00;;;;;;5069236;28;20196;-82
2023/05/31 04:22:30;;;;;;;4.40;2.50;;;10.80;1.00;;;;;;5070223;28;20201;-84
2023/05/31 04:24:55;;;;;;;4.60;2.40;;;10.80;99.90;;;;;;5069912;28;20213;-82
2023/05/31 04:27:21;;;;;;;4.83;2.80;;;10.90;99.90;;;;;;5070323;28;20199;-83
2023/05/31 04:29:46;;;;;;;5.77;2.63;;;10.70;1.00;;;;;;5087492;28;20198;-83
2023/05/31 04:32:15;;;;;;;6.47;2.70;;;10.60;1.00;;;;;;5070450;28;20300;-84
2023/05/31 04:34:41;;;;;;;4.83;2.40;;;10.60;1.00;;;;;;5086096;28;20172;-82
2023/05/31 04:37:07;;;;;;;6.67;2.80;;;10.60;99.90;;;;;;5062198;28;20185;-82
2023/05/31 04:39:33;;;;;;;4.90;2.50;;;10.70;99.90;;;;;;5061553;28;20169;-82
2023/05/31 04:41:59;;;;;;;6.13;2.50;;;10.80;99.90;;;;;;5061410;28;20759;-82
2023/05/31 04:44:25;;;;;;;6.27;2.70;;;10.90;1.00;;;;;;5079784;28;20173;-84
2023/05/31 04:46:50;;;;;;;6.73;2.57;;;10.90;1.00;;;;;;5080056;28;20181;-82
2023/05/31 04:49:16;;;;;;;5.33;2.50;;;11.00;1.00;;;;;;5060918;28;20209;-82
2023/05/31 04:51:42;;;;;;;5.13;2.73;;;11.10;1.00;;;;;;5079489;28;20185;-82
2023/05/31 04:54:08;;;;;;;4.57;2.80;;;11.30;1.00;;;;;;5060927;28;20201;-83
2023/05/31 04:56:33;;;;;;;5.43;2.43;;;11.30;10.30;;;;;;5060194;28;20177;-82
2023/05/31 04:58:59;;;;;;;4.97;2.50;;;11.20;99.90;;;;;;5068160;28;20202;-84
2023/05/31 05:01:25;;;;;;;4.20;2.60;;;11.30;99.90;;;;;;5058544;28;20212;-82
2023/05/31 05:03:52;;;;;;;4.23;2.53;;;11.40;55.00;;;;;;5057673;28;20264;-82
2023/05/31 05:06:22;;;;;;;5.10;2.50;;;11.60;1.00;;;;;;5057001;28;20173;-82
2023/05/31 05:08:47;;;;;;;4.20;2.50;;;11.70;1.00;;;;;;5074541;28;20169;-82
2023/05/31 05:11:13;;;;;;;5.53;2.50;;;11.80;99.90;;;;;;5055734;28;20238;-82
2023/05/31 05:13:39;;;;;;;5.07;2.70;;;11.90;35.30;;;;;;5056808;28;20215;-82
2023/05/31 05:16:05;;;;;;;3.00;2.30;;;12.00;99.90;;;;;;5075047;28;20165;-82
2023/05/31 05:18:31;;;;;;;5.60;2.43;;;12.10;1.00;;;;;;5075013;28;20173;-81
2023/05/31 05:20:57;;;;;;;4.90;2.50;;;12.20;1.00;;;;;;5059261;28;20169;-82
2023/05/31 05:23:23;;;;;;;4.67;2.47;;;12.20;1.00;;;;;;5057742;28;20255;-82
2023/05/31 05:25:49;;;;;;;4.60;2.33;;;12.30;99.90;;;;;;5076625;28;20173;-81
2023/05/31 05:28:15;;;;;;;6.20;2.50;;;12.40;85.70;;;;;;5056866;28;20169;-81
2023/05/31 05:30:40;;;;;;;3.20;2.40;;;12.50;99.90;;;;;;5057211;28;20658;-83
2023/05/31 05:33:06;;;;;;;7.33;2.97;;;12.70;86.10;;;;;;5056859;28;20200;-82
2023/05/31 05:35:32;;;;;;;5.27;2.60;;;12.70;99.90;;;;;;5076105;28;20173;-81
2023/05/31 05:37:59;;;;;;;4.87;2.63;;;12.80;99.90;;;;;;5057187;28;20193;-81
2023/05/31 05:40:25;;;;;;;4.53;2.00;;;12.90;1.00;;;;;;5073617;28;20177;-82
2023/05/31 05:42:51;;;;;;;4.53;2.57;;;13.00;99.90;;;;;;5073730;28;20580;-85
2023/05/31 05:45:16;;;;;;;5.53;2.63;;;13.10;99.90;;;;;;5073713;28;20191;-83
2023/05/31 05:47:44;;;;;;;6.23;2.63;;;13.20;1.00;;;;;;5073790;28;20254;-82
2023/05/31 05:50:11;;;;;;;4.60;2.23;;;13.30;99.90;;;;;;5073948;28;20246;-83
2023/05/31 05:52:37;;;;;;;5.27;2.40;;;13.40;1.00;;;;;;5074801;28;20204;-82
2023/05/31 05:55:03;;;;;;;5.53;2.60;;;13.50;99.90;;;;;;5057399;28;20265;-82
2023/05/31 05:57:29;;;;;;;6.77;2.40;;;13.60;1.00;;;;;;5076118;28;20176;-81
2023/05/31 05:59:56;;;;;;;5.13;2.57;;;13.60;99.90;;;;;;5076120;28;20185;-81
2023/05/31 06:02:21;;;;;;;6.57;2.87;;;13.70;55.40;;;;;;5076238;28;20189;-84
2023/05/31 06:04:47;;;;;;;5.63;2.47;;;13.70;1.00;;;;;;5058292;28;20169;-82
2023/05/31 06:07:12;;;;;;;4.33;2.67;;;13.80;1.00;;;;;;5057645;28;20201;-81
2023/05/31 06:09:38;;;;;;;5.53;2.40;;;13.90;99.90;;;;;;5062205;28;20183;-81
2023/05/31 06:12:04;;;;;;;3.90;2.20;;;14.00;1.00;;;;;;5063602;28;20196;-82
2023/05/31 06:14:30;;;;;;;2.97;1.80;;;14.10;1.00;;;;;;5082377;28;20207;-81
2023/05/31 06:16:55;;;;;;;5.40;2.07;;;14.30;1.00;;;;;;5079621;28;20169;-80
2023/05/31 06:19:21;;;;;;;3.20;1.83;;;14.80;99.90;;;;;;5077242;28;20184;-81
2023/05/31 06:21:48;;;;;;;5.77;2.03;;;15.60;1.00;;;;;;5059499;28;20204;-83
2023/05/31 06:24:14;;;;;;;3.57;1.97;;;16.30;99.90;;;;;;5060626;28;20230;-81
2023/05/31 06:26:39;;;;;;;4.30;2.30;;;16.80;1.00;;;;;;5061417;28;20177;-81
2023/05/31 06:29:05;;;;;;;4.27;2.17;;;17.30;99.90;;;;;;5079322;28;20628;-81
2023/05/31 06:31:31;;;;;;;4.77;2.33;;;17.30;1.00;;;;;;5070808;28;20200;-83
2023/05/31 06:33:56;;;;;;;4.67;2.30;;;17.20;99.90;;;;;;5058828;28;20636;-80
2023/05/31 06:36:22;;;;;;;4.07;1.87;;;17.10;1.00;;;;;;5078111;28;20180;-80
2023/05/31 06:38:48;;;;;;;13.90;2.50;;;17.30;1.00;;;;;;5059323;28;20168;-79
2023/05/31 06:43:57;;;;;;;3.30;2.07;;;17.30;1.00;;;;;;5092803;28;20219;-80
2023/05/31 06:46:23;;;;;;;3.30;2.00;;;17.70;1.00;;;;;;5077973;28;20164;-80
2023/05/31 06:48:49;;;;;;;3.47;2.10;;;17.70;1.00;;;;;;5095725;28;20206;-80
2023/05/31 06:51:16;;;;;;;4.40;2.17;;;17.70;1.00;;;;;;5093714;28;20165;-80
2023/05/31 06:53:41;;;;;;;3.87;1.97;;;17.50;1.00;;;;;;5095458;28;20198;-78
2023/05/31 06:56:07;;;;;;;4.33;2.10;;;17.70;1.00;;;;;;5076468;28;20259;-79
2023/05/31 06:58:32;;;;;;;3.00;1.80;;;17.90;1.00;;;;;;5076843;28;20229;-77
2023/05/31 07:00:58;;;;;;;3.20;1.87;;;18.00;1.00;;;;;;5076670;28;20172;-80
2023/05/31 07:03:24;;;;;;;3.50;2.03;;;18.00;1.00;;;;;;5091622;28;20197;-81
2023/05/31 07:05:50;;;;;;;4.93;2.13;;;18.20;1.00;;;;;;5076857;28;20164;-80
2023/05/31 07:08:16;;;;;;;2.93;1.80;;;18.20;1.00;;;;;;5095129;28;20164;-80
2023/05/31 07:10:41;;;;;;;3.90;1.97;;;18.40;99.90;;;;;;5094968;28;20180;-79
2023/05/31 07:13:07;;;;;;;4.20;2.00;;;18.30;99.90;;;;;;5095448;28;20200;-80
2023/05/31 07:15:36;;;;;;;3.23;2.00;;;18.30;99.90;;;;;;5095041;28;20768;-79
2023/05/31 07:18:01;;;;;;;3.63;2.30;;;18.40;99.90;;;;;;5076229;28;20176;-79
2023/05/31 07:20:27;;;;;;;3.77;1.97;;;18.60;99.90;;;;;;5093502;28;20256;-78
2023/05/31 07:22:53;;;;;;;2.83;1.63;;;18.80;99.90;;;;;;5094683;28;20196;-79
2023/05/31 07:25:18;;;;;;;3.07;1.70;;;18.90;75.10;;;;;;5094041;28;20184;-77
2023/05/31 07:27:44;;;;;;;3.07;1.80;;;18.80;1.00;;;;;;5094377;28;20180;-77
2023/05/31 07:30:10;;;;;;;3.10;1.80;;;18.90;1.00;;;;;;5075654;28;20179;-80
2023/05/31 07:32:35;;;;;;;4.13;1.67;;;19.00;1.00;;;;;;5072391;28;20208;-82
2023/05/31 07:35:03;;;;;;;2.13;1.70;;;19.10;1.00;;;;;;5073886;28;20542;-75
2023/05/31 07:37:28;;;;;;;4.37;1.67;;;19.10;1.00;;;;;;5076185;28;20200;-80
2023/05/31 07:39:54;;;;;;;2.63;1.70;;;19.20;1.00;;;;;;5075606;28;20201;-80
2023/05/31 07:42:20;;;;;;;3.00;1.70;;;19.30;1.00;;;;;;5064567;28;20629;-79
2023/05/31 07:44:48;;;;;;;3.67;1.80;;;19.30;1.00;;;;;;5076151;28;20259;-78
2023/05/31 07:47:14;;;;;;;2.20;1.50;;;19.50;1.00;;;;;;5094668;28;20678;-80
2023/05/31 07:49:40;;;;;;;2.90;1.63;;;19.70;1.00;;;;;;5093142;28;20183;-79
2023/05/31 07:52:06;;;;;;;2.77;1.60;;;19.80;1.00;;;;;;5094267;28;20188;-85
2023/05/31 07:54:32;;;;;;;3.03;1.70;;;19.90;1.00;;;;;;5094372;28;20265;-79
2023/05/31 07:56:58;;;;;;;3.93;1.93;;;20.00;1.00;;;;;;5093773;28;20168;-78
2023/05/31 07:59:24;;;;;;;2.88;1.60;;;20.10;1.00;;;;;;5093562;28;20182;-79
2023/05/31 08:01:49;;;;;;;4.22;1.55;;;20.10;1.00;;;;;;5092857;28;20253;-79
2023/05/31 08:04:15;;;;;;;3.30;1.60;;;20.20;1.00;;;;;;5090674;28;20181;-79
2023/05/31 08:06:42;;;;;;;3.28;1.67;;;20.40;1.00;;;;;;5075000;28;20179;-79
2023/05/31 08:09:08;;;;;;;2.92;2.10;;;20.60;1.00;;;;;;5075190;28;20184;-79
2023/05/31 08:11:37;;;;;;;2.35;1.85;;;20.60;1.00;;;;;;5074574;28;20176;-79
2023/05/31 08:14:04;;;;;;;3.03;1.80;;;20.60;1.00;;;;;;5076685;28;20230;-81
2023/05/31 08:16:31;;;;;;;3.58;2.05;;;20.50;1.00;;;;;;5095684;28;20251;-81
2023/05/31 08:18:56;;;;;;;3.10;1.80;;;20.60;1.00;;;;;;5076621;28;20164;-80
2023/05/31 08:21:22;;;;;;;3.00;1.77;;;20.60;1.00;;;;;;5075247;28;20195;-79
2023/05/31 08:23:48;;;;;;;2.17;1.55;;;20.70;1.00;;;;;;5076452;28;20172;-79
2023/05/31 08:26:13;;;;;;;2.20;1.50;;;20.80;1.00;;;;;;5094376;28;20179;-81
2023/05/31 08:28:39;;;;;;;2.10;1.90;;;21.00;99.90;;;;;;5077070;28;20176;-80
2023/05/31 08:31:04;;;;;;;4.28;1.88;;;21.10;99.90;;;;;;5076237;28;20169;-80
2023/05/31 08:33:31;;;;;;;2.25;1.42;;;21.30;99.90;;;;;;5095271;28;20216;-80
2023/05/31 08:35:59;;;;;;;2.40;1.65;;;21.40;99.90;;;;;;5095598;28;20176;-81
2023/05/31 08:38:26;;;;;;;3.40;1.60;;;21.40;99.90;;;;;;5077089;28;20169;-80
2023/05/31 08:40:52;;;;;;;4.22;1.77;;;21.40;99.90;;;;;;5076603;28;20657;-80
2023/05/31 08:43:21;;;;;;;2.25;1.70;;;21.50;99.90;;;;;;5076298;28;20208;-80
2023/05/31 08:45:50;;;;;;;2.40;1.70;;;21.40;99.90;;;;;;5076606;28;20172;-80
2023/05/31 08:48:18;;;;;;;4.15;1.70;;;21.40;99.90;;;;;;5077183;28;20547;-80
2023/05/31 08:50:46;;;;;;;2.75;1.40;;;21.60;99.90;;;;;;5076300;28;20196;-82
2023/05/31 08:53:15;;;;;;;3.25;1.70;;;21.70;99.90;;;;;;5076695;28;20222;-80
2023/05/31 08:55:42;;;;;;;2.42;1.67;;;21.70;99.90;;;;;;5094644;28;20513;-81
2023/05/31 08:58:10;;;;;;;2.78;1.52;;;21.80;99.90;;;;;;5076790;28;20228;-80
2023/05/31 09:00:36;;;;;;;3.78;1.70;;;22.00;99.90;;;;;;5094752;28;20183;-80
2023/05/31 09:03:03;;;;;;;3.97;1.90;;;22.20;99.90;;;;;;5094989;28;20188;-81
2023/05/31 09:05:29;;;;;;;2.03;1.50;;;22.30;99.90;;;;;;5076785;28;20563;-81
2023/05/31 09:07:56;;;;;;;4.70;1.70;;;22.20;99.90;;;;;;5076669;28;20180;-80
2023/05/31 09:10:21;;;;;;;4.30;1.92;;;22.30;99.90;;;;;;5075505;28;20262;-81
2023/05/31 09:12:47;;;;;;;2.10;1.60;;;22.50;99.90;;;;;;5076473;28;20287;-82
2023/05/31 09:15:16;;;;;;;2.63;1.80;;;22.40;99.90;;;;;;5076944;28;20173;-80
2023/05/31 09:17:44;;;;;;;3.60;1.80;;;22.40;99.90;;;;;;5076218;28;20267;-81
2023/05/31 09:20:10;;;;;;;2.22;1.60;;;22.70;99.90;;;;;;5093681;28;20172;-82
2023/05/31 09:22:36;;;;;;;3.45;1.73;;;22.80;99.90;;;;;;5094668;28;20215;-80
2023/05/31 09:25:01;;;;;;;4.07;1.83;;;22.90;99.90;;;;;;5094601;28;20172;-81
2023/05/31 09:27:35;;;;;;;2.90;1.77;;;23.30;99.90;;;;;;5094512;28;20164;-80
2023/05/31 09:30:05;;;;;;;2.58;1.80;;;23.40;99.90;;;;;;5076047;28;20175;-80
2023/05/31 09:32:31;;;;;;;2.60;1.65;;;23.40;99.90;;;;;;5076795;28;20240;-80
2023/05/31 09:35:17;;;;;;;2.90;1.70;;;23.50;99.90;;;;;;5094937;28;20546;-80
2023/05/31 09:37:44;;;;;;;2.60;1.50;;;23.70;99.90;;;;;;5094683;28;20192;-80
2023/05/31 09:40:13;;;;;;;3.10;1.70;;;23.70;99.90;;;;;;5076240;28;20180;-80
2023/05/31 09:42:38;;;;;;;2.45;1.70;;;23.90;99.90;;;;;;5094865;28;20203;-78
2023/05/31 09:45:05;;;;;;;3.25;1.90;;;23.80;99.90;;;;;;5079895;28;20179;-80
2023/05/31 09:47:31;;;;;;;2.65;1.77;;;23.80;99.90;;;;;;5080677;28;20665;-80
2023/05/31 09:49:56;;;;;;;2.95;1.63;;;23.90;99.90;;;;;;5098155;28;20165;-83
2023/05/31 09:52:30;;;;;;;3.17;1.60;;;24.10;99.90;;;;;;5080164;28;20196;-80
2023/05/31 09:54:59;;;;;;;2.28;1.70;;;24.10;99.90;;;;;;5080218;28;20229;-80
2023/05/31 09:57:43;;;;;;;2.30;1.55;;;24.20;99.90;;;;;;5099013;28;20192;-82
2023/05/31 10:00:20;;;;;;;2.75;1.70;;;24.20;99.90;;;;;;5079551;28;20172;-84
2023/05/31 10:02:54;;;;;;;3.47;1.90;;;24.20;99.90;;;;;;5080117;28;20203;-82
2023/05/31 10:05:20;;;;;;;3.40;1.55;;;24.30;99.90;;;;;;5085197;28;20172;-80
2023/05/31 10:07:51;;;;;;;5.47;1.80;;;24.50;99.90;;;;;;5084206;28;20196;-80
2023/05/31 10:10:20;;;;;;;2.83;1.48;;;24.50;99.90;;;;;;5079534;28;20271;-81
2023/05/31 10:12:58;;;;;;;3.15;1.50;;;24.50;99.90;;;;;;5098797;28;20201;-83
2023/05/31 10:15:25;;;;;;;2.58;1.60;;;24.50;99.90;;;;;;5098669;28;20268;-82
2023/05/31 10:17:53;;;;;;;2.10;1.55;;;24.80;99.90;;;;;;5080595;28;20198;-84
2023/05/31 10:20:19;;;;;;;9.38;1.75;;;24.90;99.90;;;;;;5080199;28;20172;-81
2023/05/31 10:22:49;;;;;;;3.00;1.48;;;25.20;99.90;;;;;;5080641;28;20196;-81
2023/05/31 10:25:38;;;;;;;2.47;1.33;;;25.20;99.90;;;;;;5098896;28;20543;-81
2023/05/31 10:28:12;;;;;;;1.95;1.40;;;25.40;99.90;;;;;;5098514;28;20173;-83
2023/05/31 10:30:41;;;;;;;2.75;1.50;;;25.30;99.90;;;;;;5080031;28;20172;-83
2023/05/31 10:33:07;;;;;;;2.60;1.30;;;25.50;99.90;;;;;;5100337;28;20203;-81
2023/05/31 10:35:34;;;;;;;2.53;1.60;;;25.30;99.90;;;;;;5098786;28;20183;-82
2023/05/31 10:38:01;;;;;;;3.75;1.35;;;25.50;99.90;;;;;;5080498;28;20172;-81
2023/05/31 10:40:32;;;;;;;2.00;1.40;;;25.70;99.90;;;;;;5080279;28;20169;-82
2023/05/31 10:43:05;;;;;;;5.57;1.48;;;25.50;99.90;;;;;;5079644;28;20208;-82
2023/05/31 10:46:00;;;;;;;3.75;1.40;;;25.40;99.90;;;;;;5098337;28;20209;-83
2023/05/31 10:48:29;;;;;;;1.85;1.30;;;25.50;99.90;;;;;;5079920;28;20180;-81
2023/05/31 10:51:02;;;;;;;2.03;1.48;;;25.40;99.90;;;;;;5079212;28;20168;-81
2023/05/31 10:53:29;;;;;;;2.13;1.50;;;25.60;99.90;;;;;;5080121;28;20218;-81
2023/05/31 10:56:03;;;;;;;1.73;1.40;;;25.80;99.90;;;;;;5093943;28;20175;-81
2023/05/31 10:58:38;;;;;;;2.58;1.50;;;26.00;99.90;;;;;;5096931;28;20180;-81
2023/05/31 11:01:15;;;;;;;2.42;1.50;;;25.90;99.90;;;;;;5095780;28;20168;-81
2023/05/31 11:03:58;;;;;;;2.28;1.30;;;26.00;99.90;;;;;;5071865;28;20188;-81
2023/05/31 11:06:30;;;;;;;2.13;1.42;;;26.30;99.90;;;;;;5078772;28;20175;-81
2023/05/31 11:08:58;;;;;;;4.13;1.42;;;26.40;99.90;;;;;;5096805;28;20241;-80
2023/05/31 11:11:27;;;;;;;2.53;1.40;;;26.50;99.90;;;;;;5078409;28;20180;-81
2023/05/31 11:14:06;;;;;;;3.47;1.67;;;26.30;99.90;;;;;;5095931;28;20512;-81
2023/05/31 11:16:56;;;;;;;3.65;1.40;;;26.00;99.90;;;;;;5077939;28;20263;-81
2023/05/31 11:19:30;;;;;;;2.47;1.50;;;26.20;99.90;;;;;;5065099;28;20643;-81
2023/05/31 11:22:05;;;;;;;1.67;1.42;;;26.50;99.90;;;;;;5096051;28;20203;-81
2023/05/31 11:24:36;;;;;;;2.85;1.67;;;26.40;99.90;;;;;;5078101;28;20172;-78
2023/05/31 11:27:03;;;;;;;2.60;1.55;;;26.40;99.90;;;;;;5096178;28;20168;-81
2023/05/31 11:29:44;;;;;;;2.63;1.77;;;26.60;99.90;;;;;;5078005;28;20183;-84
2023/05/31 11:32:10;;;;;;;1.63;1.30;;;26.80;99.90;;;;;;5096577;28;20218;-81
2023/05/31 11:34:49;;;;;;;3.33;1.60;;;27.00;99.90;;;;;;5078388;28;20253;-80
2023/05/31 11:37:15;;;;;;;2.67;1.60;;;26.80;99.90;;;;;;5096425;28;20630;-83
2023/05/31 11:39:45;;;;;;;2.72;1.77;;;26.70;99.90;;;;;;5078477;28;20176;-82
2023/05/31 11:42:11;;;;;;;2.22;1.55;;;26.80;99.90;;;;;;5078848;28;20200;-81
2023/05/31 11:44:42;;;;;;;3.63;1.83;;;26.50;99.90;;;;;;5096048;28;20180;-80
2023/05/31 11:47:11;;;;;;;3.22;1.60;;;26.40;99.90;;;;;;5098960;28;20168;-83
2023/05/31 11:49:37;;;;;;;4.63;1.70;;;26.40;99.90;;;;;;5096614;28;20214;-75
2023/05/31 11:52:03;;;;;;;2.63;1.70;;;26.80;99.90;;;;;;5074360;28;20222;-82
2023/05/31 11:54:32;;;;;;;5.00;1.50;;;27.40;99.90;;;;;;5078858;28;20192;-82
2023/05/31 11:57:02;;;;;;;2.50;1.50;;;27.50;99.90;;;;;;5096979;28;20172;-84
2023/05/31 11:59:31;;;;;;;3.00;1.73;;;27.60;99.90;;;;;;5078502;28;20247;-83
2023/05/31 12:01:59;;;;;;;2.78;1.48;;;27.40;99.90;;;;;;5077587;28;20218;-82
2023/05/31 12:04:43;;;;;;;3.17;1.50;;;27.70;99.90;;;;;;5096148;28;20169;-82
2023/05/31 12:07:16;;;;;;;2.70;1.52;;;28.00;99.90;;;;;;5094781;28;20176;-82
2023/05/31 12:09:42;;;;;;;3.75;1.65;;;28.00;99.90;;;;;;5089539;28;20164;-83
2023/05/31 12:12:08;;;;;;;4.15;1.83;;;27.60;95.10;;;;;;5096135;28;20618;-83
2023/05/31 12:14:34;;;;;;;1.75;1.40;;;27.30;97.20;;;;;;5078184;28;20610;-82
2023/05/31 12:17:06;;;;;;;2.13;1.52;;;27.40;97.50;;;;;;5087223;28;20551;-81
2023/05/31 12:19:32;;;;;;;2.47;1.73;;;27.60;99.90;;;;;;5085971;28;20180;-81
2023/05/31 12:21:58;;;;;;;2.10;1.60;;;27.80;95.80;;;;;;5096928;28;20252;-81
2023/05/31 12:24:24;;;;;;;2.08;1.70;;;27.90;92.90;;;;;;5096769;28;20177;-81
2023/05/31 12:26:49;;;;;;;2.55;1.55;;;28.10;93.60;;;;;;5077797;28;20218;-84
2023/05/31 12:29:16;;;;;;;2.80;1.63;;;28.10;91.10;;;;;;5094982;28;20213;-84
2023/05/31 12:31:42;;;;;;;2.25;1.70;;;27.90;91.50;;;;;;5075481;28;20643;-83
2023/05/31 12:34:12;;;;;;;3.20;1.80;;;27.90;90.30;;;;;;5076504;28;20196;-83
2023/05/31 12:36:39;;;;;;;2.85;1.65;;;28.00;87.20;;;;;;5089542;28;20199;-83
2023/05/31 12:39:09;;;;;;;1.98;1.77;;;28.00;89.70;;;;;;5092344;28;20172;-83
2023/05/31 12:41:45;;;;;;;3.10;1.73;;;28.10;91.10;;;;;;5082579;28;20180;-82
2023/05/31 12:44:16;;;;;;;3.13;1.90;;;28.30;91.50;;;;;;5075565;28;20610;-83
2023/05/31 12:46:46;;;;;;;3.30;1.70;;;28.50;86.80;;;;;;5075508;28;20172;-83
2023/05/31 12:49:27;;;;;;;1.75;1.48;;;28.80;88.20;;;;;;5093658;28;20168;-83
2023/05/31 12:52:15;;;;;;;2.53;1.60;;;28.50;80.60;;;;;;5092871;28;20182;-83
2023/05/31 12:54:40;;;;;;;3.65;1.77;;;28.10;84.80;;;;;;5075169;28;20208;-82
2023/05/31 12:57:09;;;;;;;3.38;1.60;;;27.90;86.00;;;;;;5093523;28;20168;-82